createdAt,value
2023-03-13T01:40:49.154Z,5.90
2023-03-13T01:43:26.868Z,5.80
2023-03-13T01:46:04.332Z,5.90
2023-03-13T01:48:46.681Z,6.00
2023-03-13T01:51:24.041Z,5.90
2023-03-13T01:56:32.650Z,6.00
2023-03-13T02:06:44.247Z,6.00
2023-03-13T02:09:18.018Z,6.00
2023-03-13T02:11:52.739Z,6.00
2023-03-13T02:16:58.828Z,5.90
2023-03-13T02:22:14.830Z,6.00
2023-03-13T02:24:52.253Z,6.00
2023-03-13T02:29:56.641Z,6.00
2023-03-13T02:40:05.733Z,6.00
2023-03-13T02:52:45.391Z,5.90
2023-03-13T02:55:22.577Z,6.00
2023-03-13T04:13:48.397Z,5.90
2023-03-13T04:29:10.428Z,6.00
2023-03-13T04:32:12.779Z,6.10
2023-03-13T04:37:48.687Z,6.00
2023-03-13T04:46:35.677Z,6.10
2023-03-13T04:57:21.469Z,6.40
2023-03-13T05:02:39.023Z,6.30
2023-03-13T05:08:17.971Z,6.50
2023-03-13T05:19:31.547Z,6.00
2023-03-13T05:25:13.714Z,7.60
2023-03-13T05:36:25.195Z,6.20
2023-03-13T05:53:22.052Z,6.10
2023-03-13T05:56:10.623Z,6.00
2023-03-13T05:59:06.453Z,5.80
2023-03-13T06:09:43.722Z,5.90
2023-03-13T06:12:15.012Z,5.90
2023-03-13T06:24:58.871Z,6.00
2023-03-13T06:40:04.747Z,5.90
2023-03-13T06:42:34.585Z,6.00
2023-03-13T06:55:17.439Z,5.90
2023-03-13T07:00:18.976Z,6.30
2023-03-13T07:10:24.597Z,6.00
2023-03-13T07:22:56.545Z,6.20
2023-03-13T07:25:29.025Z,6.20
2023-03-13T07:40:34.948Z,6.50
2023-03-13T07:55:39.757Z,6.70
2023-03-13T08:10:45.199Z,6.90
2023-03-13T08:13:15.123Z,6.90
2023-03-13T08:25:48.802Z,7.20
2023-03-13T08:51:05.584Z,7.70
2023-03-13T08:53:36.561Z,7.70
2023-03-13T08:56:10.909Z,7.80
2023-03-13T08:58:40.707Z,7.80
2023-03-13T09:01:13.299Z,8.00
2023-03-13T09:06:14.687Z,8.20
2023-03-13T09:11:19.676Z,8.40
2023-03-13T09:13:50.225Z,8.50
2023-03-13T09:16:21.888Z,8.70
2023-03-13T09:21:24.874Z,9.00
2023-03-13T09:31:30.965Z,9.80
2023-03-13T09:39:03.567Z,10.20
2023-03-13T09:41:42.051Z,10.50
2023-03-13T09:44:18.776Z,10.70
2023-03-13T09:46:52.169Z,10.80
2023-03-13T09:49:32.646Z,11.00
2023-03-13T09:57:18.976Z,11.50
2023-03-13T09:59:56.269Z,11.50
2023-03-13T10:02:33.458Z,11.40
2023-03-13T10:12:46.940Z,11.30
2023-03-13T10:15:33.428Z,11.30
2023-03-13T10:18:09.855Z,11.50
2023-03-13T10:20:39.857Z,11.40
2023-03-13T10:23:15.884Z,11.40
2023-03-13T10:25:45.882Z,11.70
2023-03-13T10:28:22.586Z,11.50
2023-03-13T10:30:54.614Z,11.60
2023-03-13T10:33:29.522Z,12.20
2023-03-13T10:36:05.284Z,11.80
2023-03-13T10:38:38.678Z,11.50
2023-03-13T10:41:20.870Z,11.50
2023-03-13T10:43:58.202Z,11.50
2023-03-13T10:46:29.933Z,11.50
2023-03-13T10:49:03.402Z,11.60
2023-03-13T10:51:40.558Z,11.70
2023-03-13T10:54:18.940Z,11.60
2023-03-13T10:56:49.848Z,11.80
2023-03-13T10:59:31.214Z,11.90
2023-03-13T11:02:03.902Z,11.70
2023-03-13T11:04:37.576Z,11.50
2023-03-13T11:07:09.660Z,11.70
2023-03-13T11:12:17.867Z,11.70
2023-03-13T11:14:50.633Z,11.80
2023-03-13T11:17:31.588Z,12.00
2023-03-13T11:20:09.644Z,12.00
2023-03-13T11:22:56.319Z,12.10
2023-03-13T11:25:33.791Z,12.30
2023-03-13T11:28:20.604Z,12.20
2023-03-13T11:31:05.812Z,12.30
2023-03-13T11:33:51.143Z,12.50
2023-03-13T11:36:25.780Z,12.50
2023-03-13T11:39:02.078Z,12.70
2023-03-13T11:41:52.409Z,12.70
2023-03-13T11:44:34.530Z,12.50
2023-03-13T11:47:35.238Z,12.50
2023-03-13T11:50:31.347Z,12.40
2023-03-13T11:53:25.356Z,12.30
2023-03-13T11:56:09.718Z,12.50
2023-03-13T11:59:07.436Z,11.90
2023-03-13T12:01:40.861Z,12.00
2023-03-13T12:04:20.258Z,12.30
2023-03-13T12:06:55.454Z,12.30
2023-03-13T12:09:31.787Z,12.10
2023-03-13T12:12:06.075Z,12.20
2023-03-13T12:14:40.720Z,12.30
2023-03-13T12:17:16.530Z,12.80
2023-03-13T12:19:53.246Z,12.30
2023-03-13T12:22:27.496Z,12.90
2023-03-13T12:25:06.282Z,12.40
2023-03-13T12:27:39.595Z,10.70
2023-03-13T12:30:18.218Z,12.80
2023-03-13T12:33:04.751Z,12.90
2023-03-13T12:35:40.360Z,13.20
2023-03-13T12:38:18.125Z,13.60
2023-03-13T12:40:53.610Z,13.40
2023-03-13T12:43:28.404Z,14.40
2023-03-13T12:46:14.939Z,14.20
2023-03-13T12:49:15.948Z,14.70
2023-03-13T12:52:03.859Z,15.10
2023-03-13T12:54:47.363Z,14.10
2023-03-13T12:57:32.461Z,16.20
2023-03-13T13:00:05.824Z,16.80
2023-03-13T13:02:36.068Z,17.10
2023-03-13T13:05:06.389Z,17.20
2023-03-13T13:07:40.889Z,17.30
2023-03-13T13:10:25.257Z,17.40
2023-03-13T13:13:28.156Z,17.50
2023-03-13T13:16:04.167Z,17.80
2023-03-13T13:18:35.633Z,17.70
2023-03-13T13:21:33.586Z,17.80
2023-03-13T13:24:43.762Z,17.90
2023-03-13T13:27:37.312Z,17.70
2023-03-13T13:30:28.399Z,19.30
2023-03-13T13:33:36.068Z,17.70
2023-03-13T13:36:33.264Z,17.80
2023-03-13T13:39:03.602Z,17.70
2023-03-13T13:41:39.498Z,17.70
2023-03-13T13:44:29.192Z,17.50
2023-03-13T13:47:02.199Z,17.10
2023-03-13T13:49:53.017Z,17.10
2023-03-13T13:52:36.052Z,16.90
2023-03-13T13:55:22.447Z,16.90
2023-03-13T13:57:52.499Z,17.20
2023-03-13T14:00:26.357Z,17.40
2023-03-13T14:02:57.089Z,17.80
2023-03-13T14:05:32.242Z,17.70
2023-03-13T14:08:07.706Z,16.60
2023-03-13T14:10:42.018Z,17.70
2023-03-13T14:13:17.392Z,17.50
2023-03-13T14:15:49.420Z,17.00
2023-03-13T14:18:25.018Z,17.10
2023-03-13T14:21:00.535Z,17.00
2023-03-13T14:23:42.455Z,17.10
2023-03-13T14:26:17.826Z,17.20
2023-03-13T14:28:50.158Z,17.20
2023-03-13T14:31:29.139Z,17.10
2023-03-13T14:34:00.656Z,16.90
2023-03-13T14:36:33.705Z,16.70
2023-03-13T14:39:03.867Z,16.50
2023-03-13T14:41:38.795Z,16.50
2023-03-13T14:44:16.502Z,16.40
2023-03-13T14:46:47.240Z,16.30
2023-03-13T14:49:21.424Z,16.10
2023-03-13T14:52:03.198Z,16.20
2023-03-13T14:54:35.415Z,16.10
2023-03-13T14:57:16.810Z,16.10
2023-03-13T14:59:46.974Z,16.10
2023-03-13T15:02:21.878Z,16.20
2023-03-13T15:05:01.314Z,16.20
2023-03-13T15:07:42.017Z,16.20
2023-03-13T15:10:22.654Z,16.30
2023-03-13T15:12:53.269Z,16.50
2023-03-13T15:15:23.182Z,16.90
2023-03-13T15:17:53.127Z,17.50
2023-03-13T15:20:23.290Z,17.40
2023-03-13T15:22:55.867Z,17.50
2023-03-13T15:25:26.829Z,17.50
2023-03-13T15:27:56.748Z,17.50
2023-03-13T15:30:26.736Z,17.40
2023-03-13T15:32:56.849Z,17.40
2023-03-13T15:35:30.110Z,17.30
2023-03-13T15:38:04.910Z,17.20
2023-03-13T15:40:34.930Z,17.10
2023-03-13T15:43:04.897Z,17.00
2023-03-13T15:45:34.864Z,17.00
2023-03-13T15:48:05.018Z,17.00
2023-03-13T15:50:35.041Z,18.00
2023-03-13T15:53:09.772Z,17.00
2023-03-13T15:55:40.254Z,16.70
2023-03-13T15:58:13.423Z,17.00
2023-03-13T16:00:44.043Z,16.80
2023-03-13T16:03:19.320Z,16.50
2023-03-13T16:05:50.898Z,16.80
2023-03-13T16:08:35.190Z,16.50
2023-03-13T16:11:06.682Z,16.70
2023-03-13T16:13:36.699Z,16.60
2023-03-13T16:16:16.559Z,16.20
2023-03-13T16:18:46.650Z,16.00
2023-03-13T16:21:20.459Z,16.10
2023-03-13T16:23:53.300Z,16.00
2023-03-13T16:26:25.014Z,15.70
2023-03-13T16:28:56.201Z,15.70
2023-03-13T16:31:28.514Z,15.80
2023-03-13T16:33:59.832Z,15.40
2023-03-13T16:36:32.024Z,15.80
2023-03-13T16:39:09.008Z,15.60
2023-03-13T16:41:39.119Z,15.20
2023-03-13T16:46:41.243Z,15.40
2023-03-13T16:49:17.432Z,15.10
2023-03-13T16:54:20.046Z,14.90
2023-03-13T16:56:49.979Z,15.70
2023-03-13T16:59:21.755Z,14.70
2023-03-13T17:04:22.351Z,14.30
2023-03-13T17:06:52.895Z,14.50
2023-03-13T17:09:25.439Z,14.70
2023-03-13T17:11:55.391Z,14.30
2023-03-13T17:14:25.275Z,14.30
2023-03-13T17:16:55.263Z,13.80
2023-03-13T17:19:25.119Z,13.90
2023-03-13T17:21:54.994Z,14.20
2023-03-13T17:24:27.481Z,13.80
2023-03-13T17:26:57.440Z,13.60
2023-03-13T17:29:27.346Z,13.80
2023-03-13T17:31:57.325Z,13.70
2023-03-13T17:34:30.391Z,13.40
2023-03-13T17:42:11.465Z,13.60
2023-03-13T17:44:44.689Z,13.80
2023-03-13T17:47:19.615Z,13.40
2023-03-13T17:49:49.575Z,13.30
2023-03-13T17:52:20.364Z,13.20
2023-03-13T17:57:25.708Z,13.30
2023-03-13T17:59:55.737Z,13.20
2023-03-13T18:02:27.548Z,13.30
2023-03-13T18:05:00.329Z,13.40
2023-03-13T18:07:31.916Z,13.10
2023-03-13T18:10:04.647Z,13.10
2023-03-13T18:15:04.833Z,13.10
2023-03-13T18:17:34.971Z,13.10
2023-03-13T18:25:13.378Z,12.70
2023-03-13T18:30:18.880Z,12.80
2023-03-13T18:32:49.227Z,13.40
2023-03-13T18:35:20.490Z,12.80
2023-03-13T18:40:25.889Z,14.20
2023-03-13T18:42:55.916Z,13.20
2023-03-13T18:45:27.687Z,13.00
2023-03-13T18:47:57.768Z,13.20
2023-03-13T18:50:29.986Z,13.30
2023-03-13T18:53:02.386Z,12.90
2023-03-13T18:55:35.049Z,14.00
2023-03-13T19:00:37.207Z,13.20
2023-03-13T19:03:07.176Z,13.10
2023-03-13T19:05:37.165Z,12.80
2023-03-13T19:08:07.464Z,13.00
2023-03-13T19:10:40.432Z,13.00
2023-03-13T19:13:10.390Z,12.80
2023-03-13T19:15:40.932Z,13.00
2023-03-13T19:18:14.865Z,13.10
2023-03-13T19:23:14.955Z,12.90
2023-03-13T19:25:47.482Z,12.50
2023-03-13T19:28:17.369Z,13.10
2023-03-13T19:33:17.597Z,12.00
2023-03-13T19:35:47.504Z,11.40
2023-03-13T19:40:50.266Z,11.20
2023-03-13T19:43:20.135Z,11.50
2023-03-13T19:48:20.361Z,11.30
2023-03-13T19:50:50.300Z,10.80
2023-03-13T19:53:20.149Z,11.00
2023-03-13T19:55:52.671Z,10.80
2023-03-13T20:10:57.747Z,10.20
2023-03-13T20:26:06.028Z,9.70
2023-03-13T20:36:10.505Z,9.60
2023-03-13T20:43:44.353Z,9.20
2023-03-13T21:11:27.030Z,9.30
2023-03-13T21:26:32.362Z,9.30
2023-03-13T21:31:25.068Z,9.40
2023-03-13T21:36:25.983Z,9.30
2023-03-13T21:46:33.108Z,9.30
2023-03-13T21:49:03.800Z,9.30
2023-03-13T22:01:38.310Z,9.30
2023-03-13T22:09:09.341Z,9.00
2023-03-13T22:16:42.675Z,8.90
2023-03-13T22:19:17.395Z,8.90
2023-03-13T22:29:17.899Z,8.50
2023-03-13T22:31:50.435Z,8.80
2023-03-13T22:34:20.340Z,8.40
2023-03-13T22:36:50.527Z,8.70
2023-03-13T22:44:21.703Z,8.80
2023-03-13T22:46:54.260Z,8.60
2023-03-13T22:51:54.623Z,8.70
2023-03-13T22:54:24.475Z,8.60
2023-03-13T22:59:24.738Z,8.40
2023-03-13T23:01:57.235Z,8.30
2023-03-13T23:04:27.095Z,8.20
2023-03-13T23:14:30.316Z,8.10
2023-03-13T23:17:03.457Z,8.20
2023-03-13T23:19:36.886Z,8.20
2023-03-13T23:27:07.985Z,8.30
2023-03-13T23:32:10.778Z,8.00
2023-03-13T23:34:40.686Z,7.70
2023-03-13T23:42:11.099Z,8.00
2023-03-13T23:47:13.964Z,7.70
2023-03-13T23:52:14.131Z,7.60
2023-03-13T23:59:44.767Z,7.40
